Time;durP1;ratioP1;P1;durP2;ratioP2;P2;SDS_P1;SDS_P2;PMS_P1;PMS_P2;Temp;Humidity;BMP_temperature;BMP_pressure;BME280_temperature;BME280_humidity;BME280_pressure;Samples;Min_cycle;Max_cycle;Signal;HPM_P1;HPM_P2
2022/05/07 00:00:16;;;;;;;21.52;16.58;;;;;;;11.95;94.90;102146.34;5253183;28;20451;-64
2022/05/07 00:02:47;;;;;;;21.80;16.90;;;;;;;11.93;95.01;102148.25;5252481;28;20402;-64
2022/05/07 00:05:19;;;;;;;19.95;16.77;;;;;;;11.99;95.53;102141.66;5253530;28;20039;-64
2022/05/07 00:07:51;;;;;;;23.13;16.83;;;;;;;11.96;95.66;102147.19;5254332;28;20053;-64
2022/05/07 00:10:22;;;;;;;19.77;16.67;;;;;;;11.93;96.15;102139.38;5248563;28;20061;-64
2022/05/07 00:12:53;;;;;;;20.75;17.27;;;;;;;11.88;96.37;102139.59;5253388;28;20036;-64
2022/05/07 00:15:24;;;;;;;21.80;17.17;;;;;;;11.80;95.55;102136.56;5252911;28;20041;-64
2022/05/07 00:18:03;;;;;;;22.00;17.10;;;;;;;11.82;96.63;102129.28;5254012;28;20115;-64
2022/05/07 00:20:35;;;;;;;21.40;16.40;;;;;;;11.74;95.52;102135.09;5254995;28;20056;-64
2022/05/07 00:23:06;;;;;;;21.30;17.35;;;;;;;11.82;96.13;102129.28;5258184;28;20478;-64
2022/05/07 00:25:38;;;;;;;21.70;17.02;;;;;;;11.78;95.65;102133.13;5258932;28;20379;-64
2022/05/07 00:28:09;;;;;;;21.98;16.90;;;;;;;11.70;95.89;102135.41;5255802;28;20021;-64
2022/05/07 00:30:40;;;;;;;21.10;16.42;;;;;;;11.71;94.35;102129.09;5259062;28;20028;-64
2022/05/07 00:33:11;;;;;;;20.77;17.15;;;;;;;11.75;96.46;102135.97;5258902;28;20044;-64
2022/05/07 00:35:43;;;;;;;23.58;16.67;;;;;;;11.61;94.00;102134.13;5246230;28;20024;-64
2022/05/07 00:38:14;;;;;;;23.27;17.83;;;;;;;11.66;96.03;102129.38;5249743;28;20120;-64
2022/05/07 00:40:45;;;;;;;20.65;16.27;;;;;;;11.62;96.72;102129.63;5256382;28;20029;-64
2022/05/07 00:43:17;;;;;;;21.70;17.05;;;;;;;11.64;97.59;102125.06;5257755;28;20035;-64
2022/05/07 00:45:50;;;;;;;21.42;15.88;;;;;;;11.58;96.50;102123.59;5257954;28;20017;-64
2022/05/07 00:48:21;;;;;;;20.02;15.90;;;;;;;11.55;96.34;102113.97;5253184;28;20479;-64
2022/05/07 00:53:44;;;;;;;19.92;15.82;;;;;;;11.56;97.19;102121.06;5254231;28;20037;-64
2022/05/07 00:56:15;;;;;;;19.90;16.10;;;;;;;11.58;97.86;102113.81;5244560;28;20037;-64
2022/05/07 00:58:47;;;;;;;20.42;16.30;;;;;;;11.47;97.27;102116.25;5258050;28;20517;-64
2022/05/07 01:01:18;;;;;;;20.20;15.63;;;;;;;11.46;97.11;102119.00;5255452;28;20593;-64
2022/05/07 01:03:49;;;;;;;18.83;16.15;;;;;;;11.49;98.14;102109.00;5255174;28;20461;-64
2022/05/07 01:06:22;;;;;;;20.42;16.15;;;;;;;11.51;98.35;102114.25;5259438;28;20479;-64
2022/05/07 01:08:53;;;;;;;18.58;15.85;;;;;;;11.51;98.86;102116.94;5257092;28;20021;-64
2022/05/07 01:11:24;;;;;;;20.10;16.60;;;;;;;11.46;99.05;102111.84;5254154;28;20803;-64
2022/05/07 01:13:56;;;;;;;20.08;15.63;;;;;;;11.49;98.41;102109.00;5256282;28;20049;-64
2022/05/07 01:16:27;;;;;;;22.48;16.70;;;;;;;11.42;98.13;102114.81;5256626;28;20052;-64
2022/05/07 01:18:58;;;;;;;21.25;16.05;;;;;;;11.46;98.76;102108.31;5257436;28;20099;-64
2022/05/07 01:21:30;;;;;;;20.48;16.17;;;;;;;11.45;98.77;102102.13;5258133;28;20032;-64
2022/05/07 01:24:02;;;;;;;17.63;15.23;;;;;;;11.40;97.58;102104.22;5256243;28;20376;-64
2022/05/07 01:26:33;;;;;;;21.08;16.58;;;;;;;11.34;96.08;102105.44;5256623;28;20108;-64
2022/05/07 01:29:04;;;;;;;20.55;16.02;;;;;;;11.31;95.54;102100.28;5249875;28;20151;-64
2022/05/07 01:31:35;;;;;;;20.40;17.00;;;;;;;11.29;98.31;102096.81;5257899;28;20021;-64
2022/05/07 01:34:07;;;;;;;22.38;17.50;;;;;;;11.28;97.76;102091.59;5257042;28;20123;-64
2022/05/07 01:36:38;;;;;;;21.10;16.88;;;;;;;11.29;98.11;102094.16;5256467;28;20033;-64
2022/05/07 01:39:10;;;;;;;20.23;16.90;;;;;;;11.22;97.35;102084.81;5256223;28;20043;-64
2022/05/07 01:41:41;;;;;;;19.85;16.98;;;;;;;11.24;97.97;102088.25;5257946;28;20064;-64
2022/05/07 01:44:13;;;;;;;23.38;17.55;;;;;;;11.33;99.82;102094.81;5248170;28;20043;-64
2022/05/07 01:49:33;;;;;;;21.42;17.55;;;;;;;11.27;98.42;102092.53;5256839;28;20029;-64
2022/05/07 01:52:05;;;;;;;23.67;17.77;;;;;;;11.26;98.27;102096.16;5256756;28;20028;-64
2022/05/07 01:54:36;;;;;;;22.42;16.95;;;;;;;11.18;96.58;102091.28;5255720;28;20112;-64
2022/05/07 01:57:08;;;;;;;20.73;17.08;;;;;;;11.17;96.94;102097.56;5256841;28;20028;-64
2022/05/07 01:59:39;;;;;;;20.88;17.30;;;;;;;11.24;98.64;102087.34;5254513;28;20029;-64
2022/05/07 02:02:10;;;;;;;24.60;17.40;;;;;;;11.22;99.17;102087.47;5245909;28;20025;-64
2022/05/07 02:04:41;;;;;;;22.10;17.45;;;;;;;11.24;99.66;102082.88;5256610;28;20458;-64
2022/05/07 02:07:13;;;;;;;24.70;18.30;;;;;;;11.26;99.46;102081.00;5251159;28;20037;-64
2022/05/07 02:09:44;;;;;;;21.63;16.60;;;;;;;11.26;99.73;102075.66;5255995;28;20017;-64
2022/05/07 02:12:16;;;;;;;21.15;17.45;;;;;;;11.26;99.71;102080.13;5253077;28;20037;-64
2022/05/07 02:14:47;;;;;;;19.90;17.05;;;;;;;11.26;100.00;102072.13;5256257;28;20049;-64
2022/05/07 02:17:19;;;;;;;22.50;17.83;;;;;;;11.22;99.44;102075.91;5254641;28;20033;-64
2022/05/07 02:19:50;;;;;;;21.83;17.20;;;;;;;11.26;99.47;102081.00;5257484;28;20037;-64
2022/05/07 02:22:21;;;;;;;20.05;16.70;;;;;;;11.18;98.90;102068.09;5251424;28;20104;-64
2022/05/07 02:24:52;;;;;;;22.20;16.90;;;;;;;11.19;98.96;102069.78;5256731;28;20028;-64
2022/05/07 02:27:24;;;;;;;20.85;16.27;;;;;;;11.17;97.45;102076.19;5254946;28;20106;-64
2022/05/07 02:29:56;;;;;;;20.23;16.50;;;;;;;11.23;99.11;102074.97;5256528;28;20033;-64
2022/05/07 02:32:27;;;;;;;20.75;17.48;;;;;;;11.23;99.13;102077.63;5256678;28;20032;-64
2022/05/07 02:34:58;;;;;;;23.40;17.45;;;;;;;11.21;98.97;102072.38;5253073;28;20029;-64
2022/05/07 02:37:29;;;;;;;21.45;18.15;;;;;;;11.26;100.00;102069.44;5245638;28;20120;-64
2022/05/07 02:40:01;;;;;;;21.83;18.52;;;;;;;11.28;100.00;102067.53;5256026;28;20025;-64
2022/05/07 02:42:39;;;;;;;24.60;18.25;;;;;;;11.25;100.00;102067.72;5256233;28;20039;-64
2022/05/07 02:45:12;;;;;;;24.73;18.83;;;;;;;11.17;100.00;102062.81;5247588;28;20028;-64
2022/05/07 02:47:44;;;;;;;24.83;19.47;;;;;;;11.29;100.00;102063.91;5255652;28;20029;-64
2022/05/07 02:50:15;;;;;;;26.33;18.92;;;;;;;11.24;100.00;102060.63;5245861;28;20437;-64
2022/05/07 02:52:46;;;;;;;24.25;18.73;;;;;;;11.18;100.00;102060.06;5254817;28;20029;-64
2022/05/07 02:55:18;;;;;;;24.13;19.00;;;;;;;11.18;99.77;102060.06;5256296;28;20044;-64
2022/05/07 02:57:49;;;;;;;29.33;20.70;;;;;;;11.18;100.00;102056.56;5256626;28;20025;-64
2022/05/07 03:00:20;;;;;;;25.83;19.40;;;;;;;11.16;99.57;102059.31;5256044;28;20033;-64
2022/05/07 03:02:52;;;;;;;21.10;17.90;;;;;;;11.16;98.45;102058.41;5252210;28;20029;-64
2022/05/07 03:05:23;;;;;;;27.95;19.17;;;;;;;11.23;100.00;102059.78;5251030;28;20402;-64
2022/05/07 03:07:58;;;;;;;24.60;18.80;;;;;;;11.19;100.00;102064.44;5254308;28;20849;-64
2022/05/07 03:10:29;;;;;;;24.65;19.02;;;;;;;11.20;100.00;102065.34;5246415;28;20787;-64
2022/05/07 03:13:00;;;;;;;23.98;18.80;;;;;;;11.22;100.00;102059.88;5255161;28;20029;-64
2022/05/07 03:15:32;;;;;;;24.33;19.27;;;;;;;11.26;100.00;102056.09;5254312;28;20064;-64
2022/05/07 03:18:03;;;;;;;27.98;19.52;;;;;;;11.21;100.00;102055.50;5252602;28;20078;-64
2022/05/07 03:20:34;;;;;;;27.27;19.65;;;;;;;11.19;100.00;102056.44;5255953;28;20032;-64
2022/05/07 03:23:06;;;;;;;26.75;19.23;;;;;;;11.21;100.00;102055.50;5254671;28;20033;-64
2022/05/07 03:25:37;;;;;;;25.25;19.85;;;;;;;11.19;100.00;102059.09;5253901;28;20033;-64
2022/05/07 03:28:09;;;;;;;25.63;19.70;;;;;;;11.24;100.00;102056.19;5252901;28;20063;-64
2022/05/07 03:30:40;;;;;;;22.52;19.20;;;;;;;11.24;100.00;102057.97;5256037;28;20021;-64
2022/05/07 03:33:12;;;;;;;25.15;19.90;;;;;;;11.22;100.00;102058.09;5256155;28;20036;-64
2022/05/07 03:35:44;;;;;;;25.23;19.33;;;;;;;11.20;100.00;102062.66;5252285;28;20090;-64
2022/05/07 03:38:15;;;;;;;24.27;19.58;;;;;;;11.26;100.00;102059.63;5249161;28;20033;-64
2022/05/07 03:40:46;;;;;;;23.88;19.15;;;;;;;11.30;100.00;102062.97;5255481;28;20044;-64
2022/05/07 03:43:17;;;;;;;24.33;19.77;;;;;;;11.25;100.00;102059.69;5255098;28;20040;-64
2022/05/07 03:45:48;;;;;;;23.73;19.02;;;;;;;11.23;99.28;102065.13;5254796;28;20033;-64
2022/05/07 03:48:20;;;;;;;25.40;19.80;;;;;;;11.18;98.21;102065.41;5253784;28;20031;-64
2022/05/07 03:50:51;;;;;;;27.60;19.75;;;;;;;11.24;98.70;102063.31;5254349;28;20033;-64
2022/05/07 03:53:31;;;;;;;26.73;20.48;;;;;;;11.17;97.97;102063.69;5256010;28;20029;-64
2022/05/07 03:56:06;;;;;;;27.95;21.20;;;;;;;11.24;100.00;102068.66;5255523;28;20028;-64
2022/05/07 03:58:37;;;;;;;;;;;;;;;11.31;98.77;102065.56;5251811;28;20163;-64
2022/05/07 04:01:08;;;;;;;27.27;20.65;;;;;;;11.27;99.83;102071.16;5248311;28;19923;-64
2022/05/07 04:03:40;;;;;;;27.75;20.83;;;;;;;11.21;100.00;102072.38;5254526;28;20025;-64
2022/05/07 04:06:11;;;;;;;24.88;21.52;;;;;;;11.16;99.49;102078.00;5251892;28;20489;-64
2022/05/07 04:08:42;;;;;;;26.30;20.25;;;;;;;11.22;100.00;102081.25;5250401;28;20017;-64
2022/05/07 04:11:13;;;;;;;25.67;20.02;;;;;;;11.12;99.34;102075.59;5246204;28;20040;-64
2022/05/07 04:13:45;;;;;;;26.75;20.73;;;;;;;11.14;99.89;102084.38;5248136;28;20037;-64
2022/05/07 04:16:16;;;;;;;24.95;20.27;;;;;;;11.12;100.00;102078.25;5253043;28;20048;-64
2022/05/07 04:18:47;;;;;;;28.33;21.05;;;;;;;11.16;100.00;102083.34;5255686;28;20116;-64
2022/05/07 04:21:19;;;;;;;28.77;22.02;;;;;;;11.23;100.00;102085.66;5254639;28;20028;-64
2022/05/07 04:23:50;;;;;;;28.63;23.00;;;;;;;11.31;100.00;102086.03;5253228;28;20025;-64
2022/05/07 04:26:21;;;;;;;29.48;24.08;;;;;;;11.26;100.00;102081.00;5251468;28;20033;-64
2022/05/07 04:28:52;;;;;;;29.15;23.80;;;;;;;11.27;99.99;102082.69;5252458;28;20025;-64
2022/05/07 04:31:24;;;;;;;31.77;24.67;;;;;;;11.21;98.75;102079.53;5248775;28;20029;-64
2022/05/07 04:33:56;;;;;;;32.35;25.45;;;;;;;11.21;99.75;102085.72;5250914;28;20025;-64
2022/05/07 04:36:27;;;;;;;29.15;24.42;;;;;;;11.27;99.97;102082.69;5253142;28;20163;-64
2022/05/07 04:38:58;;;;;;;31.27;24.77;;;;;;;11.34;100.00;102089.41;5253783;28;20021;-64
2022/05/07 04:41:30;;;;;;;32.08;25.33;;;;;;;11.33;100.00;102087.69;5245058;28;20037;-64
2022/05/07 04:44:01;;;;;;;32.05;25.92;;;;;;;11.42;100.00;102086.25;5253012;28;20048;-64
2022/05/07 04:46:32;;;;;;;30.05;25.02;;;;;;;11.38;100.00;102084.72;5252958;28;20422;-64
2022/05/07 04:49:05;;;;;;;32.88;25.00;;;;;;;11.44;99.24;102094.19;5250144;28;20021;-64
2022/05/07 04:51:37;;;;;;;31.67;25.40;;;;;;;11.52;100.00;102099.94;5255381;28;20075;-64
2022/05/07 04:54:08;;;;;;;30.15;25.38;;;;;;;11.48;98.12;102101.94;5254866;28;20434;-64
2022/05/07 04:56:39;;;;;;;31.65;25.13;;;;;;;11.52;97.41;102103.44;5252048;28;20060;-64
2022/05/07 04:59:11;;;;;;;32.65;25.73;;;;;;;11.55;99.35;102099.75;5256291;28;20471;-64
2022/05/07 05:01:42;;;;;;;30.88;25.60;;;;;;;11.58;98.47;102103.09;5254651;28;20480;-64
2022/05/07 05:04:14;;;;;;;32.90;25.45;;;;;;;11.68;100.00;102099.88;5250703;28;20597;-64
2022/05/07 05:06:45;;;;;;;30.98;25.70;;;;;;;11.69;98.33;102104.25;5255963;28;20375;-64
2022/05/07 05:09:17;;;;;;;32.60;26.52;;;;;;;11.70;96.30;102101.50;5258309;28;20418;-64
2022/05/07 05:11:48;;;;;;;37.15;26.98;;;;;;;11.75;96.79;102115.44;5250339;28;20060;-64
2022/05/07 05:17:09;;;;;;;33.65;26.95;;;;;;;11.79;96.25;102121.44;5256224;28;20037;-64
2022/05/07 05:19:40;;;;;;;36.75;27.10;;;;;;;11.83;95.99;102127.47;5253482;28;20017;-64
2022/05/07 05:22:11;;;;;;;33.42;28.00;;;;;;;11.86;97.11;102133.50;5249116;28;20242;-64
2022/05/07 05:24:43;;;;;;;36.92;29.17;;;;;;;11.87;97.11;102140.56;5256926;28;20033;-64
2022/05/07 05:27:14;;;;;;;34.10;27.77;;;;;;;11.87;95.81;102135.22;5255660;28;20075;-64
2022/05/07 05:29:46;;;;;;;35.28;28.48;;;;;;;11.88;95.41;102139.59;5259097;28;20103;-64
2022/05/07 05:32:17;;;;;;;34.47;29.15;;;;;;;11.92;96.51;102141.16;5256159;28;20024;-64
2022/05/07 05:34:52;;;;;;;39.10;29.73;;;;;;;11.91;96.15;102149.31;5257399;28;20067;-64
2022/05/07 05:37:23;;;;;;;36.95;31.48;;;;;;;11.89;94.64;102149.41;5254803;28;20035;-64
2022/05/07 05:39:54;;;;;;;37.88;31.77;;;;;;;11.88;94.92;102141.44;5258686;28;20536;-64
2022/05/07 05:42:26;;;;;;;38.80;31.27;;;;;;;11.91;94.28;102141.28;5256712;28;20518;-64
2022/05/07 05:44:57;;;;;;;37.60;30.63;;;;;;;11.94;94.56;102141.94;5253562;28;20474;-65
2022/05/07 05:47:28;;;;;;;37.40;30.73;;;;;;;11.95;94.45;102142.81;5251470;28;20035;-64
2022/05/07 05:50:01;;;;;;;37.20;31.77;;;;;;;12.04;94.10;102149.41;5253068;28;20544;-64
2022/05/07 05:52:32;;;;;;;39.92;31.90;;;;;;;12.10;94.45;102154.34;5251309;28;20117;-64
2022/05/07 05:55:04;;;;;;;36.47;30.15;;;;;;;12.17;93.90;102150.34;5254181;28;20108;-64
2022/05/07 05:57:35;;;;;;;35.92;29.70;;;;;;;12.21;94.38;102151.88;5257940;28;20033;-64
2022/05/07 06:00:07;;;;;;;35.63;30.73;;;;;;;12.26;94.55;102148.94;5257862;28;20121;-64
2022/05/07 06:02:39;;;;;;;36.00;30.35;;;;;;;12.32;95.15;102140.50;5252746;28;20451;-64
2022/05/07 06:05:15;;;;;;;38.05;31.58;;;;;;;12.39;94.45;102144.53;5255926;28;20085;-64
2022/05/07 06:07:46;;;;;;;40.22;31.20;;;;;;;12.52;94.54;102144.59;5257018;28;20436;-64
2022/05/07 06:10:17;;;;;;;39.85;31.40;;;;;;;12.56;94.07;102138.09;5256135;28;20368;-64
2022/05/07 06:12:49;;;;;;;37.13;29.17;;;;;;;12.61;93.04;102149.34;5250432;28;20020;-64
2022/05/07 06:15:20;;;;;;;33.53;28.65;;;;;;;12.65;92.12;102148.19;5253391;28;20072;-64
2022/05/07 06:17:51;;;;;;;33.03;27.48;;;;;;;12.72;91.36;102146.00;5253744;28;20028;-64
2022/05/07 06:20:23;;;;;;;32.40;28.25;;;;;;;12.75;91.65;102152.03;5255861;28;20110;-64
2022/05/07 06:22:59;;;;;;;34.65;27.42;;;;;;;12.87;91.36;102149.50;5256788;28;20017;-64
2022/05/07 06:28:22;;;;;;;35.60;26.48;;;;;;;13.08;90.03;102158.81;5247627;28;20498;-64
2022/05/07 06:30:54;;;;;;;35.53;25.80;;;;;;;13.18;89.24;102158.19;5257276;28;20032;-64
2022/05/07 06:33:26;;;;;;;32.42;24.25;;;;;;;13.28;88.85;102161.97;5250630;28;20526;-64
2022/05/07 06:35:57;;;;;;;34.92;25.83;;;;;;;13.32;89.41;102158.16;5254235;28;20113;-64
2022/05/07 06:38:29;;;;;;;34.78;25.70;;;;;;;13.43;88.50;102160.13;5251674;28;20018;-65
2022/05/07 06:41:04;;;;;;;30.65;23.50;;;;;;;13.50;88.81;102162.28;5258233;28;20016;-64
2022/05/07 06:43:36;;;;;;;31.38;23.60;;;;;;;13.61;87.91;102163.38;5255202;28;20368;-64
2022/05/07 06:46:07;;;;;;;34.58;24.63;;;;;;;13.65;88.68;102160.38;5249277;28;20082;-64
2022/05/07 06:48:38;;;;;;;34.28;24.77;;;;;;;13.72;87.23;102158.97;5254544;28;20340;-64
2022/05/07 06:51:09;;;;;;;33.28;24.75;;;;;;;13.80;87.75;102168.31;5251747;28;20037;-64
2022/05/07 06:53:41;;;;;;;29.27;24.05;;;;;;;13.81;87.40;102164.69;5254148;28;20099;-64
2022/05/07 06:56:12;;;;;;;32.15;24.10;;;;;;;13.93;86.04;102167.38;5256669;28;20040;-64
2022/05/07 06:58:43;;;;;;;31.88;24.02;;;;;;;13.98;86.44;102171.53;5249550;28;20040;-65
2022/05/07 07:01:14;;;;;;;32.00;24.73;;;;;;;14.03;85.12;102169.41;5250502;28;20396;-64
2022/05/07 07:03:46;;;;;;;31.33;25.00;;;;;;;14.12;85.79;102158.88;5248610;28;20021;-64
2022/05/07 07:06:17;;;;;;;32.38;23.75;;;;;;;14.22;85.30;102169.81;5250708;28;20103;-64
2022/05/07 07:08:49;;;;;;;31.33;22.30;;;;;;;14.29;84.52;102163.06;5256104;28;20032;-65
2022/05/07 07:11:23;;;;;;;33.20;23.58;;;;;;;14.41;84.38;102165.84;5247178;28;20025;-64
2022/05/07 07:13:55;;;;;;;;;;;;;;;14.51;85.11;102172.25;5252304;28;20052;-64
2022/05/07 07:16:26;;;;;;;31.67;23.55;;;;;;;14.55;83.01;102168.38;5254639;28;19916;-64
2022/05/07 07:18:57;;;;;;;33.67;23.92;;;;;;;14.61;82.79;102162.63;5256251;28;20044;-64
2022/05/07 07:21:28;;;;;;;32.53;23.23;;;;;;;14.69;83.00;102168.28;5253204;28;20390;-64
2022/05/07 07:24:01;;;;;;;33.22;22.65;;;;;;;14.77;82.31;102162.34;5249250;28;20083;-65
2022/05/07 07:26:32;;;;;;;33.38;22.80;;;;;;;14.83;81.76;102159.19;5249400;28;20033;-64
2022/05/07 07:29:03;;;;;;;29.83;22.65;;;;;;;14.86;80.17;102158.13;5250966;28;20387;-65
2022/05/07 07:31:35;;;;;;;33.55;21.15;;;;;;;14.97;79.52;102160.00;5255853;28;20743;-65
2022/05/07 07:34:06;;;;;;;29.40;22.10;;;;;;;15.07;79.62;102164.59;5255518;28;20538;-65
2022/05/07 07:36:37;;;;;;;28.30;22.38;;;;;;;15.13;79.60;102165.09;5268278;28;20037;-65
2022/05/07 07:39:09;;;;;;;32.85;23.85;;;;;;;15.25;80.01;102165.03;5243186;28;20033;-65
2022/05/07 07:41:40;;;;;;;27.38;21.73;;;;;;;15.34;79.32;102165.31;5253489;28;20118;-64
2022/05/07 07:44:12;;;;;;;29.88;22.67;;;;;;;15.33;80.25;102166.31;5254364;28;20033;-64
2022/05/07 07:49:33;;;;;;;32.88;21.25;;;;;;;15.56;77.46;102162.72;5252633;28;20040;-64
2022/05/07 07:52:05;;;;;;;30.15;20.80;;;;;;;15.66;77.09;102165.56;5256037;28;20036;-64
2022/05/07 07:54:36;;;;;;;27.48;18.73;;;;;;;15.79;76.44;102168.19;5254977;28;20391;-65
2022/05/07 07:57:07;;;;;;;25.95;19.15;;;;;;;15.85;74.24;102163.19;5257382;28;20373;-65
2022/05/07 07:59:39;;;;;;;24.30;19.50;;;;;;;15.95;75.30;102163.31;5253372;28;20102;-64
2022/05/07 08:02:10;;;;;;;27.48;19.60;;;;;;;16.03;73.07;102168.09;5255974;28;20029;-65
2022/05/07 08:04:42;;;;;;;25.70;19.05;;;;;;;16.30;73.53;102166.88;5255393;28;20530;-64
2022/05/07 08:12:53;;;;;;;28.80;19.98;;;;;;;16.77;72.49;102159.50;5249932;28;20040;-65
2022/05/07 08:15:24;;;;;;;25.00;19.63;;;;;;;16.92;72.19;102163.66;5250591;28;20064;-65
2022/05/07 08:17:56;;;;;;;27.20;19.65;;;;;;;17.00;70.10;102160.34;5248289;28;20025;-65
2022/05/07 08:20:27;;;;;;;27.60;19.38;;;;;;;17.09;68.90;102156.88;5253561;28;20039;-64
2022/05/07 08:22:58;;;;;;;29.42;19.92;;;;;;;17.07;68.28;102155.28;5256437;28;20070;-65
2022/05/07 08:25:29;;;;;;;23.65;17.88;;;;;;;17.10;70.30;102166.66;5255037;28;20020;-65
2022/05/07 08:28:01;;;;;;;26.60;19.15;;;;;;;17.21;68.43;102165.78;5254042;28;20074;-65
2022/05/07 08:30:32;;;;;;;24.13;17.90;;;;;;;17.14;69.94;102167.28;5252286;28;20040;-65
2022/05/07 08:33:04;;;;;;;27.70;18.25;;;;;;;17.19;67.19;102173.16;5256181;28;20104;-65
2022/05/07 08:35:36;;;;;;;25.50;17.70;;;;;;;17.18;67.40;102176.81;5246079;28;20586;-65
2022/05/07 08:38:07;;;;;;;25.13;17.75;;;;;;;17.19;66.99;102171.28;5258807;28;20021;-65
2022/05/07 08:40:42;;;;;;;25.95;17.73;;;;;;;17.22;66.21;102184.53;5257344;28;20068;-65
2022/05/07 08:43:15;;;;;;;25.88;17.90;;;;;;;17.20;69.54;102173.03;5260063;28;20081;-65
2022/05/07 08:45:46;;;;;;;27.48;18.65;;;;;;;17.27;65.16;102180.59;5257730;28;20075;-65
2022/05/07 08:48:18;;;;;;;27.40;18.67;;;;;;;17.55;66.75;102174.59;5253574;28;20487;-65
2022/05/07 08:50:51;;;;;;;29.48;19.80;;;;;;;17.54;66.30;102174.72;5258781;28;20075;-65
2022/05/07 08:53:22;;;;;;;28.17;18.80;;;;;;;17.79;64.37;102176.16;5249961;28;20020;-65
2022/05/07 08:55:54;;;;;;;27.77;17.70;;;;;;;17.84;64.86;102165.84;5257392;28;20040;-65
2022/05/07 08:58:25;;;;;;;26.33;17.98;;;;;;;18.05;63.28;102178.50;5257573;28;20043;-65
2022/05/07 09:00:57;;;;;;;26.45;17.35;;;;;;;18.21;62.94;102173.44;5251610;28;20480;-65
2022/05/07 09:03:39;;;;;;;26.80;16.90;;;;;;;18.32;64.97;102167.94;5256915;28;20028;-65
2022/05/07 09:06:18;;;;;;;23.67;17.27;;;;;;;18.57;62.88;102165.78;5250189;28;20056;-65
2022/05/07 09:08:51;;;;;;;24.80;17.83;;;;;;;18.72;60.66;102156.28;5256063;28;20475;-65
2022/05/07 09:11:23;;;;;;;27.20;18.75;;;;;;;19.03;62.11;102158.94;5255349;28;20033;-65
2022/05/07 09:14:06;;;;;;;26.25;18.73;;;;;;;19.26;61.45;102162.22;5253468;28;20041;-65
2022/05/07 09:16:42;;;;;;;22.77;18.20;;;;;;;19.22;58.36;102159.94;5254361;28;20047;-65
2022/05/07 09:19:28;;;;;;;24.90;17.80;;;;;;;19.45;60.43;102163.22;5256636;28;20047;-65
2022/05/07 09:22:09;;;;;;;25.75;17.83;;;;;;;19.42;59.88;102155.38;5252646;28;20033;-65
2022/05/07 09:24:52;;;;;;;27.02;18.42;;;;;;;19.49;59.53;102154.66;5256276;28;20024;-65
2022/05/07 09:27:24;;;;;;;21.10;16.35;;;;;;;19.78;57.21;102157.34;5259406;28;20398;-65
2022/05/07 09:29:59;;;;;;;26.80;18.08;;;;;;;19.89;58.86;102158.19;5252240;28;20017;-65
2022/05/07 09:32:38;;;;;;;26.25;16.73;;;;;;;20.07;56.57;102156.41;5257055;28;20110;-65
2022/05/07 09:38:04;;;;;;;;;;;;;;;20.22;56.15;102155.94;5248818;28;20542;-65
2022/05/07 09:40:41;;;;;;;31.23;20.52;;;;;;;20.08;54.87;102160.84;5257011;28;19935;-65
2022/05/07 09:43:12;;;;;;;27.27;19.58;;;;;;;19.92;55.89;102163.28;5251519;28;20088;-65
2022/05/07 09:45:44;;;;;;;24.00;19.77;;;;;;;19.80;56.74;102159.91;5253143;28;20020;-65
2022/05/07 09:48:16;;;;;;;29.48;20.42;;;;;;;19.73;55.15;102166.91;5250184;28;20438;-65
2022/05/07 09:50:47;;;;;;;29.80;20.98;;;;;;;19.72;55.03;102163.34;5247161;28;20045;-65
2022/05/07 09:58:59;;;;;;;28.77;21.75;;;;;;;19.43;55.21;102157.09;5244748;28;20503;-65
2022/05/07 10:01:39;;;;;;;30.75;21.40;;;;;;;19.37;56.32;102155.81;5256892;28;20021;-65
2022/05/07 10:04:32;;;;;;;29.48;22.30;;;;;;;19.42;56.43;102158.91;5258342;28;20035;-65
2022/05/07 10:07:43;;;;;;;29.30;19.75;;;;;;;19.53;58.36;102160.63;5255193;28;20437;-65
2022/05/07 10:10:29;;;;;;;25.40;18.20;;;;;;;19.62;55.61;102153.47;5255212;28;20307;-65
2022/05/07 10:13:01;;;;;;;27.63;18.20;;;;;;;19.62;58.39;102153.47;5256242;28;20132;-65
2022/05/07 10:15:33;;;;;;;24.98;19.13;;;;;;;19.51;54.90;102152.66;5256087;28;20239;-65
2022/05/07 10:18:07;;;;;;;23.60;18.00;;;;;;;19.74;54.50;102149.66;5257303;28;20040;-65
2022/05/07 10:20:41;;;;;;;20.50;15.25;;;;;;;19.72;52.80;102146.25;5255873;28;20029;-65
2022/05/07 10:23:14;;;;;;;20.90;14.65;;;;;;;19.81;53.59;102145.38;5256991;28;20037;-65
2022/05/07 10:25:55;;;;;;;19.63;13.23;;;;;;;20.01;55.02;102146.16;5251941;28;20123;-65
2022/05/07 10:28:42;;;;;;;22.58;14.00;;;;;;;20.12;53.98;102145.97;5247855;28;20459;-65
2022/05/07 10:31:21;;;;;;;16.95;13.18;;;;;;;19.98;52.11;102143.75;5257023;28;20044;-65
2022/05/07 10:33:53;;;;;;;20.70;14.35;;;;;;;19.87;52.20;102135.81;5251425;28;20445;-65
2022/05/07 10:36:35;;;;;;;20.08;12.98;;;;;;;19.97;52.02;102140.19;5250098;28;20025;-65
2022/05/07 10:39:07;;;;;;;20.13;13.85;;;;;;;19.87;51.18;102138.53;5257655;28;20467;-65
2022/05/07 10:41:48;;;;;;;17.42;10.98;;;;;;;20.21;51.52;102138.81;5256503;28;20433;-65
2022/05/07 10:44:33;;;;;;;15.48;11.07;;;;;;;20.38;51.47;102142.59;5241089;28;20033;-65
2022/05/07 10:47:13;;;;;;;13.95;8.13;;;;;;;20.61;47.11;102142.22;5253919;28;20116;-65
2022/05/07 10:49:51;;;;;;;14.65;8.82;;;;;;;20.40;47.78;102139.72;5256635;28;20108;-65
2022/05/07 10:52:33;;;;;;;15.15;8.80;;;;;;;20.60;47.16;102132.38;5253632;28;20060;-65
2022/05/07 10:55:16;;;;;;;12.25;8.05;;;;;;;20.45;46.27;102129.28;5255574;28;20111;-65
2022/05/07 10:57:48;;;;;;;16.23;10.18;;;;;;;20.64;46.07;102140.06;5256644;28;20124;-65
2022/05/07 11:00:21;;;;;;;13.82;9.00;;;;;;;20.86;47.46;102127.91;5247657;28;20033;-65
2022/05/07 11:02:58;;;;;;;16.40;10.30;;;;;;;21.00;46.63;102131.09;5254383;28;20119;-65
2022/05/07 11:05:31;;;;;;;18.25;10.32;;;;;;;21.21;47.14;102128.94;5254965;28;20060;-65
2022/05/07 11:08:03;;;;;;;15.23;9.80;;;;;;;21.13;47.15;102132.44;5250937;28;20029;-65
2022/05/07 11:10:35;;;;;;;14.60;9.65;;;;;;;21.21;45.66;102126.22;5242052;28;20033;-65
2022/05/07 11:13:07;;;;;;;18.08;9.95;;;;;;;21.40;48.77;102125.19;5250029;28;20028;-66
2022/05/07 11:15:39;;;;;;;15.32;9.32;;;;;;;21.43;46.73;102129.44;5252901;28;20072;-65
2022/05/07 11:18:15;;;;;;;15.00;9.52;;;;;;;21.57;45.65;102130.78;5251081;28;20491;-65
2022/05/07 11:20:46;;;;;;;14.77;9.32;;;;;;;21.51;45.86;102126.81;5255909;28;20020;-65
2022/05/07 11:23:17;;;;;;;16.67;9.30;;;;;;;21.39;50.77;102126.19;5256183;28;20025;-65
2022/05/07 11:25:49;;;;;;;16.63;9.73;;;;;;;21.37;49.09;102127.38;5253772;28;20130;-65
2022/05/07 11:28:20;;;;;;;14.57;9.40;;;;;;;21.35;47.81;102130.25;5256290;28;20116;-65
2022/05/07 11:30:52;;;;;;;13.65;8.73;;;;;;;21.41;48.05;102126.03;5254689;28;20059;-65
2022/05/07 11:33:24;;;;;;;15.55;9.07;;;;;;;21.17;48.88;102126.69;5253116;28;20114;-66
2022/05/07 11:36:09;;;;;;;15.63;9.43;;;;;;;21.19;47.72;102127.38;5253446;28;20025;-65
2022/05/07 11:38:40;;;;;;;14.20;9.00;;;;;;;21.34;46.19;102129.41;5251622;28;20143;-65
2022/05/07 11:41:14;;;;;;;14.57;8.95;;;;;;;21.42;46.80;102119.59;5255218;28;20507;-65
2022/05/07 11:46:48;;;;;;;17.95;10.70;;;;;;;21.33;47.93;102114.09;5254628;28;20119;-65
2022/05/07 11:49:33;;;;;;;14.75;10.38;;;;;;;21.14;48.96;102120.56;5248000;28;20108;-66
2022/05/07 11:52:06;;;;;;;14.50;10.35;;;;;;;21.16;50.23;102114.97;5249930;28;20021;-65
2022/05/07 11:54:51;;;;;;;14.63;9.80;;;;;;;21.52;48.22;102115.81;5256149;28;20036;-65
2022/05/07 11:57:29;;;;;;;15.82;9.70;;;;;;;21.81;47.97;102109.22;5253839;28;20108;-65
2022/05/07 12:00:15;;;;;;;16.40;9.68;;;;;;;22.10;46.90;102106.13;5255863;28;20801;-66
2022/05/07 12:02:54;;;;;;;15.15;9.30;;;;;;;22.15;47.00;102108.38;5252621;28;20033;-66
2022/05/07 12:05:26;;;;;;;13.55;9.35;;;;;;;22.28;47.32;102110.66;5254289;28;20589;-66